sensor_id;sensor_type;location;lat;lon;timestamp;P1;durP1;ratioP1;P2;durP2;ratioP2
26319;SDS011;14024;52.226;5.200;2024-01-11T00:00:28;34.45;;;14.23;;
26319;SDS011;14024;52.226;5.200;2024-01-11T00:02:55;30.58;;;13.45;;
26319;SDS011;14024;52.226;5.200;2024-01-11T00:05:20;36.38;;;13.88;;
26319;SDS011;14024;52.226;5.200;2024-01-11T00:07:46;34.95;;;14.38;;
26319;SDS011;14024;52.226;5.200;2024-01-11T00:10:11;34.88;;;13.93;;
26319;SDS011;14024;52.226;5.200;2024-01-11T00:12:37;31.40;;;13.43;;
26319;SDS011;14024;52.226;5.200;2024-01-11T00:15:02;37.10;;;13.90;;
26319;SDS011;14024;52.226;5.200;2024-01-11T00:17:28;32.05;;;13.80;;
26319;SDS011;14024;52.226;5.200;2024-01-11T00:19:53;29.75;;;13.20;;
26319;SDS011;14024;52.226;5.200;2024-01-11T00:22:19;32.22;;;13.95;;
26319;SDS011;14024;52.226;5.200;2024-01-11T00:24:44;35.50;;;13.90;;
26319;SDS011;14024;52.226;5.200;2024-01-11T00:27:09;32.40;;;14.10;;
26319;SDS011;14024;52.226;5.200;2024-01-11T00:29:35;37.53;;;14.30;;
26319;SDS011;14024;52.226;5.200;2024-01-11T00:32:01;36.33;;;13.48;;
26319;SDS011;14024;52.226;5.200;2024-01-11T00:34:26;35.25;;;14.65;;
26319;SDS011;14024;52.226;5.200;2024-01-11T00:36:51;35.15;;;15.35;;
26319;SDS011;14024;52.226;5.200;2024-01-11T00:39:17;32.65;;;14.20;;
26319;SDS011;14024;52.226;5.200;2024-01-11T00:41:42;39.45;;;16.35;;
26319;SDS011;14024;52.226;5.200;2024-01-11T00:44:07;35.67;;;14.02;;
26319;SDS011;14024;52.226;5.200;2024-01-11T00:46:33;33.08;;;13.90;;
26319;SDS011;14024;52.226;5.200;2024-01-11T00:48:59;34.92;;;13.80;;
26319;SDS011;14024;52.226;5.200;2024-01-11T00:51:25;32.17;;;13.40;;
26319;SDS011;14024;52.226;5.200;2024-01-11T00:53:50;39.33;;;14.52;;
26319;SDS011;14024;52.226;5.200;2024-01-11T00:56:16;34.00;;;14.00;;
26319;SDS011;14024;52.226;5.200;2024-01-11T00:58:45;35.78;;;14.98;;
26319;SDS011;14024;52.226;5.200;2024-01-11T01:01:11;35.30;;;13.88;;
26319;SDS011;14024;52.226;5.200;2024-01-11T01:03:37;39.47;;;14.63;;
26319;SDS011;14024;52.226;5.200;2024-01-11T01:06:02;30.20;;;13.48;;
26319;SDS011;14024;52.226;5.200;2024-01-11T01:08:28;34.60;;;14.25;;
26319;SDS011;14024;52.226;5.200;2024-01-11T01:10:54;35.95;;;15.55;;
26319;SDS011;14024;52.226;5.200;2024-01-11T01:13:20;34.08;;;15.35;;
26319;SDS011;14024;52.226;5.200;2024-01-11T01:15:45;37.08;;;15.15;;
26319;SDS011;14024;52.226;5.200;2024-01-11T01:18:10;36.28;;;15.05;;
26319;SDS011;14024;52.226;5.200;2024-01-11T01:20:36;36.60;;;14.65;;
26319;SDS011;14024;52.226;5.200;2024-01-11T01:23:01;34.40;;;14.63;;
26319;SDS011;14024;52.226;5.200;2024-01-11T01:25:27;36.45;;;14.65;;
26319;SDS011;14024;52.226;5.200;2024-01-11T01:27:52;38.20;;;15.55;;
26319;SDS011;14024;52.226;5.200;2024-01-11T01:30:17;37.45;;;15.48;;
26319;SDS011;14024;52.226;5.200;2024-01-11T01:32:43;37.08;;;15.20;;
26319;SDS011;14024;52.226;5.200;2024-01-11T01:35:08;36.85;;;15.23;;
26319;SDS011;14024;52.226;5.200;2024-01-11T01:37:33;40.42;;;15.85;;
26319;SDS011;14024;52.226;5.200;2024-01-11T01:39:59;39.40;;;17.13;;
26319;SDS011;14024;52.226;5.200;2024-01-11T01:42:24;39.47;;;15.85;;
26319;SDS011;14024;52.226;5.200;2024-01-11T01:44:51;47.03;;;17.25;;
26319;SDS011;14024;52.226;5.200;2024-01-11T01:47:16;40.22;;;15.98;;
26319;SDS011;14024;52.226;5.200;2024-01-11T01:49:43;40.83;;;16.98;;
26319;SDS011;14024;52.226;5.200;2024-01-11T01:52:10;38.08;;;16.58;;
26319;SDS011;14024;52.226;5.200;2024-01-11T01:54:35;35.88;;;15.65;;
26319;SDS011;14024;52.226;5.200;2024-01-11T01:57:01;41.80;;;16.65;;
26319;SDS011;14024;52.226;5.200;2024-01-11T01:59:29;44.03;;;16.60;;
26319;SDS011;14024;52.226;5.200;2024-01-11T02:01:55;45.22;;;17.67;;
26319;SDS011;14024;52.226;5.200;2024-01-11T02:04:20;41.03;;;16.73;;
26319;SDS011;14024;52.226;5.200;2024-01-11T02:06:47;43.10;;;16.50;;
26319;SDS011;14024;52.226;5.200;2024-01-11T02:09:14;36.80;;;15.75;;
26319;SDS011;14024;52.226;5.200;2024-01-11T02:11:42;41.67;;;16.35;;
26319;SDS011;14024;52.226;5.200;2024-01-11T02:14:10;42.70;;;16.55;;
26319;SDS011;14024;52.226;5.200;2024-01-11T02:16:36;42.83;;;17.88;;
26319;SDS011;14024;52.226;5.200;2024-01-11T02:19:02;49.63;;;18.00;;
26319;SDS011;14024;52.226;5.200;2024-01-11T02:21:28;39.65;;;16.45;;
26319;SDS011;14024;52.226;5.200;2024-01-11T02:24:05;39.08;;;17.05;;
26319;SDS011;14024;52.226;5.200;2024-01-11T02:26:31;45.88;;;17.63;;
26319;SDS011;14024;52.226;5.200;2024-01-11T02:28:57;45.30;;;19.00;;
26319;SDS011;14024;52.226;5.200;2024-01-11T02:31:22;42.60;;;17.75;;
26319;SDS011;14024;52.226;5.200;2024-01-11T02:33:49;46.33;;;18.85;;
26319;SDS011;14024;52.226;5.200;2024-01-11T02:36:15;49.42;;;19.58;;
26319;SDS011;14024;52.226;5.200;2024-01-11T02:38:42;50.42;;;19.00;;
26319;SDS011;14024;52.226;5.200;2024-01-11T02:41:08;47.22;;;19.35;;
26319;SDS011;14024;52.226;5.200;2024-01-11T02:43:34;46.25;;;18.77;;
26319;SDS011;14024;52.226;5.200;2024-01-11T02:46:02;47.97;;;18.85;;
26319;SDS011;14024;52.226;5.200;2024-01-11T02:48:28;46.08;;;19.50;;
26319;SDS011;14024;52.226;5.200;2024-01-11T02:50:55;48.17;;;19.52;;
26319;SDS011;14024;52.226;5.200;2024-01-11T02:53:21;46.20;;;19.98;;
26319;SDS011;14024;52.226;5.200;2024-01-11T02:55:46;45.20;;;17.95;;
26319;SDS011;14024;52.226;5.200;2024-01-11T02:58:12;45.85;;;19.02;;
26319;SDS011;14024;52.226;5.200;2024-01-11T03:00:37;46.15;;;18.75;;
26319;SDS011;14024;52.226;5.200;2024-01-11T03:03:02;49.42;;;18.95;;
26319;SDS011;14024;52.226;5.200;2024-01-11T03:05:28;51.67;;;20.90;;
26319;SDS011;14024;52.226;5.200;2024-01-11T03:07:53;48.92;;;21.40;;
26319;SDS011;14024;52.226;5.200;2024-01-11T03:10:19;54.67;;;21.05;;
26319;SDS011;14024;52.226;5.200;2024-01-11T03:12:44;53.58;;;20.90;;
26319;SDS011;14024;52.226;5.200;2024-01-11T03:15:11;48.40;;;19.83;;
26319;SDS011;14024;52.226;5.200;2024-01-11T03:17:37;58.47;;;20.95;;
26319;SDS011;14024;52.226;5.200;2024-01-11T03:20:02;52.42;;;20.52;;
26319;SDS011;14024;52.226;5.200;2024-01-11T03:22:29;54.00;;;21.20;;
26319;SDS011;14024;52.226;5.200;2024-01-11T03:24:54;59.60;;;22.48;;
26319;SDS011;14024;52.226;5.200;2024-01-11T03:27:20;52.00;;;22.20;;
26319;SDS011;14024;52.226;5.200;2024-01-11T03:29:45;53.92;;;22.30;;
26319;SDS011;14024;52.226;5.200;2024-01-11T03:32:10;50.30;;;21.77;;
26319;SDS011;14024;52.226;5.200;2024-01-11T03:34:38;52.78;;;21.17;;
26319;SDS011;14024;52.226;5.200;2024-01-11T03:37:04;57.78;;;22.48;;
26319;SDS011;14024;52.226;5.200;2024-01-11T03:39:30;52.95;;;22.67;;
26319;SDS011;14024;52.226;5.200;2024-01-11T03:41:55;64.20;;;24.13;;
26319;SDS011;14024;52.226;5.200;2024-01-11T03:44:20;60.90;;;23.17;;
26319;SDS011;14024;52.226;5.200;2024-01-11T03:46:46;60.35;;;23.65;;
26319;SDS011;14024;52.226;5.200;2024-01-11T03:49:11;60.13;;;24.38;;
26319;SDS011;14024;52.226;5.200;2024-01-11T03:51:37;59.25;;;23.48;;
26319;SDS011;14024;52.226;5.200;2024-01-11T03:54:02;61.78;;;24.13;;
26319;SDS011;14024;52.226;5.200;2024-01-11T03:56:27;59.60;;;25.25;;
26319;SDS011;14024;52.226;5.200;2024-01-11T03:58:53;58.10;;;24.30;;
26319;SDS011;14024;52.226;5.200;2024-01-11T04:01:18;65.20;;;25.80;;
26319;SDS011;14024;52.226;5.200;2024-01-11T04:03:44;62.85;;;23.60;;
26319;SDS011;14024;52.226;5.200;2024-01-11T04:06:18;67.38;;;26.23;;
26319;SDS011;14024;52.226;5.200;2024-01-11T04:08:46;64.18;;;25.77;;
26319;SDS011;14024;52.226;5.200;2024-01-11T04:11:11;63.65;;;25.00;;
26319;SDS011;14024;52.226;5.200;2024-01-11T04:13:36;64.85;;;25.67;;
26319;SDS011;14024;52.226;5.200;2024-01-11T04:16:04;67.25;;;26.25;;
26319;SDS011;14024;52.226;5.200;2024-01-11T04:18:30;71.15;;;27.35;;
26319;SDS011;14024;52.226;5.200;2024-01-11T04:20:56;65.88;;;25.50;;
26319;SDS011;14024;52.226;5.200;2024-01-11T04:23:21;66.03;;;25.80;;
26319;SDS011;14024;52.226;5.200;2024-01-11T04:25:46;66.63;;;25.77;;
26319;SDS011;14024;52.226;5.200;2024-01-11T04:28:12;67.95;;;27.15;;
26319;SDS011;14024;52.226;5.200;2024-01-11T04:30:37;67.80;;;26.25;;
26319;SDS011;14024;52.226;5.200;2024-01-11T04:33:02;65.75;;;25.30;;
26319;SDS011;14024;52.226;5.200;2024-01-11T04:35:28;71.63;;;27.30;;
26319;SDS011;14024;52.226;5.200;2024-01-11T04:37:53;68.70;;;26.73;;
26319;SDS011;14024;52.226;5.200;2024-01-11T04:40:18;65.97;;;26.52;;
26319;SDS011;14024;52.226;5.200;2024-01-11T04:42:44;68.45;;;27.40;;
26319;SDS011;14024;52.226;5.200;2024-01-11T04:45:09;72.57;;;27.90;;
26319;SDS011;14024;52.226;5.200;2024-01-11T04:47:34;71.88;;;28.02;;
26319;SDS011;14024;52.226;5.200;2024-01-11T04:50:00;76.68;;;29.35;;
26319;SDS011;14024;52.226;5.200;2024-01-11T04:52:26;69.63;;;27.48;;
26319;SDS011;14024;52.226;5.200;2024-01-11T04:54:52;75.03;;;29.50;;
26319;SDS011;14024;52.226;5.200;2024-01-11T04:57:17;75.88;;;28.23;;
26319;SDS011;14024;52.226;5.200;2024-01-11T04:59:42;71.53;;;28.60;;
26319;SDS011;14024;52.226;5.200;2024-01-11T05:02:08;73.65;;;28.50;;
26319;SDS011;14024;52.226;5.200;2024-01-11T05:04:33;77.07;;;28.88;;
26319;SDS011;14024;52.226;5.200;2024-01-11T05:06:59;76.10;;;28.55;;
26319;SDS011;14024;52.226;5.200;2024-01-11T05:09:24;75.03;;;28.65;;
26319;SDS011;14024;52.226;5.200;2024-01-11T05:11:50;70.43;;;28.17;;
26319;SDS011;14024;52.226;5.200;2024-01-11T05:14:15;74.05;;;30.02;;
26319;SDS011;14024;52.226;5.200;2024-01-11T05:16:40;74.95;;;28.35;;
26319;SDS011;14024;52.226;5.200;2024-01-11T05:19:06;68.10;;;27.52;;
26319;SDS011;14024;52.226;5.200;2024-01-11T05:21:32;74.38;;;29.45;;
26319;SDS011;14024;52.226;5.200;2024-01-11T05:23:57;74.82;;;27.73;;
26319;SDS011;14024;52.226;5.200;2024-01-11T05:26:23;75.60;;;28.90;;
26319;SDS011;14024;52.226;5.200;2024-01-11T05:28:48;74.53;;;28.25;;
26319;SDS011;14024;52.226;5.200;2024-01-11T05:31:14;76.82;;;28.83;;
26319;SDS011;14024;52.226;5.200;2024-01-11T05:33:40;72.70;;;28.73;;
26319;SDS011;14024;52.226;5.200;2024-01-11T05:36:06;76.03;;;29.13;;
26319;SDS011;14024;52.226;5.200;2024-01-11T05:38:33;78.95;;;31.17;;
26319;SDS011;14024;52.226;5.200;2024-01-11T05:40:59;78.97;;;29.50;;
26319;SDS011;14024;52.226;5.200;2024-01-11T05:43:24;66.88;;;27.90;;
26319;SDS011;14024;52.226;5.200;2024-01-11T05:45:50;72.03;;;28.63;;
26319;SDS011;14024;52.226;5.200;2024-01-11T05:48:16;74.03;;;29.27;;
26319;SDS011;14024;52.226;5.200;2024-01-11T05:50:42;69.97;;;28.05;;
26319;SDS011;14024;52.226;5.200;2024-01-11T05:53:08;74.78;;;28.48;;
26319;SDS011;14024;52.226;5.200;2024-01-11T05:55:34;78.15;;;29.58;;
26319;SDS011;14024;52.226;5.200;2024-01-11T05:57:59;72.40;;;29.40;;
26319;SDS011;14024;52.226;5.200;2024-01-11T06:00:25;73.80;;;28.45;;
26319;SDS011;14024;52.226;5.200;2024-01-11T06:02:50;80.05;;;29.98;;
26319;SDS011;14024;52.226;5.200;2024-01-11T06:05:16;74.78;;;29.58;;
26319;SDS011;14024;52.226;5.200;2024-01-11T06:07:41;72.70;;;29.30;;
26319;SDS011;14024;52.226;5.200;2024-01-11T06:10:07;76.15;;;30.02;;
26319;SDS011;14024;52.226;5.200;2024-01-11T06:12:34;78.30;;;30.67;;
26319;SDS011;14024;52.226;5.200;2024-01-11T06:15:00;78.45;;;28.80;;
26319;SDS011;14024;52.226;5.200;2024-01-11T06:17:26;69.30;;;28.92;;
26319;SDS011;14024;52.226;5.200;2024-01-11T06:19:51;73.00;;;28.73;;
26319;SDS011;14024;52.226;5.200;2024-01-11T06:22:16;73.13;;;29.48;;
26319;SDS011;14024;52.226;5.200;2024-01-11T06:24:42;73.18;;;28.50;;
26319;SDS011;14024;52.226;5.200;2024-01-11T06:27:07;69.55;;;27.85;;
26319;SDS011;14024;52.226;5.200;2024-01-11T06:29:32;80.72;;;29.92;;
26319;SDS011;14024;52.226;5.200;2024-01-11T06:31:58;74.88;;;29.38;;
26319;SDS011;14024;52.226;5.200;2024-01-11T06:34:23;69.22;;;29.10;;
26319;SDS011;14024;52.226;5.200;2024-01-11T06:36:48;79.13;;;29.27;;
26319;SDS011;14024;52.226;5.200;2024-01-11T06:39:14;75.53;;;30.50;;
26319;SDS011;14024;52.226;5.200;2024-01-11T06:41:39;72.72;;;28.58;;
26319;SDS011;14024;52.226;5.200;2024-01-11T06:44:04;81.85;;;29.85;;
26319;SDS011;14024;52.226;5.200;2024-01-11T06:46:30;77.70;;;29.52;;
26319;SDS011;14024;52.226;5.200;2024-01-11T06:48:55;72.07;;;28.83;;
26319;SDS011;14024;52.226;5.200;2024-01-11T06:51:21;72.43;;;27.88;;
26319;SDS011;14024;52.226;5.200;2024-01-11T06:53:47;78.00;;;30.25;;
26319;SDS011;14024;52.226;5.200;2024-01-11T06:56:16;73.40;;;29.88;;
26319;SDS011;14024;52.226;5.200;2024-01-11T06:58:43;80.97;;;30.60;;
26319;SDS011;14024;52.226;5.200;2024-01-11T07:01:09;82.18;;;30.95;;
26319;SDS011;14024;52.226;5.200;2024-01-11T07:03:35;76.80;;;30.70;;
26319;SDS011;14024;52.226;5.200;2024-01-11T07:06:00;74.00;;;29.98;;
26319;SDS011;14024;52.226;5.200;2024-01-11T07:08:27;79.00;;;30.02;;
26319;SDS011;14024;52.226;5.200;2024-01-11T07:10:53;77.18;;;30.98;;
26319;SDS011;14024;52.226;5.200;2024-01-11T07:13:18;81.68;;;31.65;;
26319;SDS011;14024;52.226;5.200;2024-01-11T07:15:44;73.20;;;30.48;;
26319;SDS011;14024;52.226;5.200;2024-01-11T07:18:09;77.68;;;30.42;;
26319;SDS011;14024;52.226;5.200;2024-01-11T07:20:35;77.82;;;30.10;;
26319;SDS011;14024;52.226;5.200;2024-01-11T07:23:00;81.05;;;31.40;;
26319;SDS011;14024;52.226;5.200;2024-01-11T07:25:26;77.53;;;31.20;;
26319;SDS011;14024;52.226;5.200;2024-01-11T07:27:51;77.35;;;31.30;;
26319;SDS011;14024;52.226;5.200;2024-01-11T07:30:18;78.45;;;31.85;;
26319;SDS011;14024;52.226;5.200;2024-01-11T07:32:44;81.70;;;31.33;;
26319;SDS011;14024;52.226;5.200;2024-01-11T07:35:09;76.25;;;29.73;;
26319;SDS011;14024;52.226;5.200;2024-01-11T07:37:36;79.53;;;30.90;;
26319;SDS011;14024;52.226;5.200;2024-01-11T07:40:02;79.18;;;31.40;;
26319;SDS011;14024;52.226;5.200;2024-01-11T07:42:27;79.97;;;31.80;;
26319;SDS011;14024;52.226;5.200;2024-01-11T07:44:52;105.28;;;36.97;;
26319;SDS011;14024;52.226;5.200;2024-01-11T07:47:18;81.18;;;33.15;;
26319;SDS011;14024;52.226;5.200;2024-01-11T07:49:43;70.78;;;29.35;;
26319;SDS011;14024;52.226;5.200;2024-01-11T07:52:09;73.82;;;29.98;;
26319;SDS011;14024;52.226;5.200;2024-01-11T07:54:34;72.63;;;29.48;;
26319;SDS011;14024;52.226;5.200;2024-01-11T07:57:00;78.90;;;29.92;;
26319;SDS011;14024;52.226;5.200;2024-01-11T07:59:27;78.95;;;30.83;;
26319;SDS011;14024;52.226;5.200;2024-01-11T08:01:53;80.85;;;31.90;;
26319;SDS011;14024;52.226;5.200;2024-01-11T08:04:19;83.05;;;32.92;;
26319;SDS011;14024;52.226;5.200;2024-01-11T08:06:46;82.07;;;32.45;;
26319;SDS011;14024;52.226;5.200;2024-01-11T08:09:11;76.05;;;31.05;;
26319;SDS011;14024;52.226;5.200;2024-01-11T08:11:38;82.45;;;30.88;;
26319;SDS011;14024;52.226;5.200;2024-01-11T08:14:04;78.47;;;31.83;;
26319;SDS011;14024;52.226;5.200;2024-01-11T08:16:30;82.28;;;32.72;;
26319;SDS011;14024;52.226;5.200;2024-01-11T08:18:55;81.47;;;32.28;;
26319;SDS011;14024;52.226;5.200;2024-01-11T08:21:21;79.40;;;32.10;;
26319;SDS011;14024;52.226;5.200;2024-01-11T08:23:46;82.75;;;33.65;;
26319;SDS011;14024;52.226;5.200;2024-01-11T08:26:14;89.10;;;33.13;;
26319;SDS011;14024;52.226;5.200;2024-01-11T08:28:40;87.30;;;34.45;;
26319;SDS011;14024;52.226;5.200;2024-01-11T08:31:06;84.00;;;34.28;;
26319;SDS011;14024;52.226;5.200;2024-01-11T08:33:32;79.45;;;33.22;;
26319;SDS011;14024;52.226;5.200;2024-01-11T08:35:57;78.65;;;33.38;;
26319;SDS011;14024;52.226;5.200;2024-01-11T08:38:23;81.53;;;32.53;;
26319;SDS011;14024;52.226;5.200;2024-01-11T08:40:49;84.45;;;32.20;;
26319;SDS011;14024;52.226;5.200;2024-01-11T08:43:14;81.75;;;30.85;;
26319;SDS011;14024;52.226;5.200;2024-01-11T08:45:42;87.13;;;34.05;;
26319;SDS011;14024;52.226;5.200;2024-01-11T08:48:11;80.97;;;32.53;;
26319;SDS011;14024;52.226;5.200;2024-01-11T08:50:37;81.05;;;31.05;;
26319;SDS011;14024;52.226;5.200;2024-01-11T08:53:02;83.35;;;34.88;;
26319;SDS011;14024;52.226;5.200;2024-01-11T08:55:28;79.57;;;30.40;;
26319;SDS011;14024;52.226;5.200;2024-01-11T08:57:53;75.63;;;30.08;;
26319;SDS011;14024;52.226;5.200;2024-01-11T09:00:19;79.68;;;29.92;;
26319;SDS011;14024;52.226;5.200;2024-01-11T09:02:44;75.60;;;29.55;;
26319;SDS011;14024;52.226;5.200;2024-01-11T09:05:11;71.75;;;28.10;;
26319;SDS011;14024;52.226;5.200;2024-01-11T09:07:36;78.55;;;32.28;;
26319;SDS011;14024;52.226;5.200;2024-01-11T09:10:02;73.75;;;30.38;;
26319;SDS011;14024;52.226;5.200;2024-01-11T09:12:28;71.40;;;29.25;;
26319;SDS011;14024;52.226;5.200;2024-01-11T09:14:53;69.13;;;27.52;;
26319;SDS011;14024;52.226;5.200;2024-01-11T09:17:18;64.63;;;27.10;;
26319;SDS011;14024;52.226;5.200;2024-01-11T09:19:44;70.07;;;28.33;;
26319;SDS011;14024;52.226;5.200;2024-01-11T09:22:09;73.93;;;28.23;;
26319;SDS011;14024;52.226;5.200;2024-01-11T09:24:35;66.47;;;26.35;;
26319;SDS011;14024;52.226;5.200;2024-01-11T09:27:01;62.40;;;24.88;;
26319;SDS011;14024;52.226;5.200;2024-01-11T09:29:26;72.45;;;27.88;;
26319;SDS011;14024;52.226;5.200;2024-01-11T09:31:52;71.38;;;27.88;;
26319;SDS011;14024;52.226;5.200;2024-01-11T09:34:18;69.13;;;26.98;;
26319;SDS011;14024;52.226;5.200;2024-01-11T09:36:43;61.15;;;25.95;;
26319;SDS011;14024;52.226;5.200;2024-01-11T09:39:10;64.57;;;24.77;;
26319;SDS011;14024;52.226;5.200;2024-01-11T09:41:38;64.05;;;24.65;;
26319;SDS011;14024;52.226;5.200;2024-01-11T09:44:08;67.97;;;25.02;;
26319;SDS011;14024;52.226;5.200;2024-01-11T09:46:34;61.63;;;23.50;;
26319;SDS011;14024;52.226;5.200;2024-01-11T09:48:59;62.10;;;23.50;;
26319;SDS011;14024;52.226;5.200;2024-01-11T09:51:28;63.78;;;25.63;;
26319;SDS011;14024;52.226;5.200;2024-01-11T09:53:54;62.78;;;24.52;;
26319;SDS011;14024;52.226;5.200;2024-01-11T09:56:21;59.05;;;23.30;;
26319;SDS011;14024;52.226;5.200;2024-01-11T09:58:48;58.13;;;23.33;;
26319;SDS011;14024;52.226;5.200;2024-01-11T10:01:15;62.20;;;25.88;;
26319;SDS011;14024;52.226;5.200;2024-01-11T10:03:41;61.53;;;25.60;;
26319;SDS011;14024;52.226;5.200;2024-01-11T10:06:06;66.72;;;25.35;;
26319;SDS011;14024;52.226;5.200;2024-01-11T10:08:32;54.28;;;23.73;;
26319;SDS011;14024;52.226;5.200;2024-01-11T10:10:59;59.63;;;24.88;;
26319;SDS011;14024;52.226;5.200;2024-01-11T10:13:27;56.60;;;23.20;;
26319;SDS011;14024;52.226;5.200;2024-01-11T10:18:38;65.07;;;26.20;;
26319;SDS011;14024;52.226;5.200;2024-01-11T10:21:04;68.75;;;27.60;;
26319;SDS011;14024;52.226;5.200;2024-01-11T10:23:32;64.50;;;27.55;;
26319;SDS011;14024;52.226;5.200;2024-01-11T10:25:59;69.20;;;27.90;;
26319;SDS011;14024;52.226;5.200;2024-01-11T10:28:25;66.47;;;26.90;;
26319;SDS011;14024;52.226;5.200;2024-01-11T10:30:51;66.22;;;26.00;;
26319;SDS011;14024;52.226;5.200;2024-01-11T10:33:20;59.58;;;25.70;;
26319;SDS011;14024;52.226;5.200;2024-01-11T10:35:46;58.13;;;25.35;;
26319;SDS011;14024;52.226;5.200;2024-01-11T10:38:14;61.53;;;26.27;;
26319;SDS011;14024;52.226;5.200;2024-01-11T10:40:40;59.05;;;23.42;;
26319;SDS011;14024;52.226;5.200;2024-01-11T10:43:08;58.65;;;25.55;;
26319;SDS011;14024;52.226;5.200;2024-01-11T10:45:38;60.60;;;26.23;;
26319;SDS011;14024;52.226;5.200;2024-01-11T10:48:06;63.65;;;25.38;;
26319;SDS011;14024;52.226;5.200;2024-01-11T10:50:37;55.33;;;23.92;;
26319;SDS011;14024;52.226;5.200;2024-01-11T10:53:12;56.80;;;23.65;;
26319;SDS011;14024;52.226;5.200;2024-01-11T10:56:00;61.60;;;27.03;;
26319;SDS011;14024;52.226;5.200;2024-01-11T10:58:26;57.88;;;24.60;;
26319;SDS011;14024;52.226;5.200;2024-01-11T11:00:53;61.60;;;23.88;;
26319;SDS011;14024;52.226;5.200;2024-01-11T11:03:25;57.60;;;25.35;;
26319;SDS011;14024;52.226;5.200;2024-01-11T11:05:52;56.83;;;23.90;;
26319;SDS011;14024;52.226;5.200;2024-01-11T11:08:18;59.45;;;25.70;;
26319;SDS011;14024;52.226;5.200;2024-01-11T11:10:45;60.05;;;25.45;;
26319;SDS011;14024;52.226;5.200;2024-01-11T11:13:13;57.10;;;24.40;;
26319;SDS011;14024;52.226;5.200;2024-01-11T11:15:40;61.00;;;25.80;;
26319;SDS011;14024;52.226;5.200;2024-01-11T11:18:11;58.63;;;24.98;;
26319;SDS011;14024;52.226;5.200;2024-01-11T11:20:38;59.67;;;24.73;;
26319;SDS011;14024;52.226;5.200;2024-01-11T11:23:07;55.50;;;25.52;;
26319;SDS011;14024;52.226;5.200;2024-01-11T11:25:35;55.35;;;23.42;;
26319;SDS011;14024;52.226;5.200;2024-01-11T11:28:00;56.70;;;23.60;;
26319;SDS011;14024;52.226;5.200;2024-01-11T11:30:29;53.78;;;23.50;;
26319;SDS011;14024;52.226;5.200;2024-01-11T11:32:57;53.22;;;23.13;;
26319;SDS011;14024;52.226;5.200;2024-01-11T11:35:26;56.50;;;24.90;;
26319;SDS011;14024;52.226;5.200;2024-01-11T11:37:57;57.38;;;23.77;;
26319;SDS011;14024;52.226;5.200;2024-01-11T11:40:33;52.13;;;22.67;;
26319;SDS011;14024;52.226;5.200;2024-01-11T11:43:04;55.58;;;23.88;;
26319;SDS011;14024;52.226;5.200;2024-01-11T11:45:32;55.90;;;24.08;;
26319;SDS011;14024;52.226;5.200;2024-01-11T11:47:58;58.33;;;25.25;;
26319;SDS011;14024;52.226;5.200;2024-01-11T11:50:23;53.88;;;24.00;;
26319;SDS011;14024;52.226;5.200;2024-01-11T11:52:55;54.05;;;24.10;;
26319;SDS011;14024;52.226;5.200;2024-01-11T11:55:24;50.92;;;23.00;;
26319;SDS011;14024;52.226;5.200;2024-01-11T11:57:53;52.58;;;24.10;;
26319;SDS011;14024;52.226;5.200;2024-01-11T12:00:19;53.85;;;23.90;;
26319;SDS011;14024;52.226;5.200;2024-01-11T12:02:46;52.85;;;24.17;;
26319;SDS011;14024;52.226;5.200;2024-01-11T12:05:12;57.53;;;24.98;;
26319;SDS011;14024;52.226;5.200;2024-01-11T12:07:38;67.60;;;25.50;;
26319;SDS011;14024;52.226;5.200;2024-01-11T12:10:04;56.90;;;24.67;;
26319;SDS011;14024;52.226;5.200;2024-01-11T12:12:30;56.85;;;23.73;;
26319;SDS011;14024;52.226;5.200;2024-01-11T12:14:56;54.35;;;24.23;;
26319;SDS011;14024;52.226;5.200;2024-01-11T12:17:23;57.63;;;22.40;;
26319;SDS011;14024;52.226;5.200;2024-01-11T12:19:49;55.17;;;22.75;;
26319;SDS011;14024;52.226;5.200;2024-01-11T12:22:16;46.33;;;21.30;;
26319;SDS011;14024;52.226;5.200;2024-01-11T12:24:42;49.10;;;21.23;;
26319;SDS011;14024;52.226;5.200;2024-01-11T12:27:07;47.90;;;21.60;;
26319;SDS011;14024;52.226;5.200;2024-01-11T12:29:33;50.00;;;21.90;;
26319;SDS011;14024;52.226;5.200;2024-01-11T12:31:58;47.40;;;21.45;;
26319;SDS011;14024;52.226;5.200;2024-01-11T12:34:28;50.63;;;22.65;;
26319;SDS011;14024;52.226;5.200;2024-01-11T12:36:54;50.70;;;21.50;;
26319;SDS011;14024;52.226;5.200;2024-01-11T12:39:20;47.17;;;21.08;;
26319;SDS011;14024;52.226;5.200;2024-01-11T12:41:49;53.50;;;23.25;;
26319;SDS011;14024;52.226;5.200;2024-01-11T12:44:19;44.15;;;19.98;;
26319;SDS011;14024;52.226;5.200;2024-01-11T12:46:47;48.25;;;20.60;;
26319;SDS011;14024;52.226;5.200;2024-01-11T12:49:17;46.45;;;20.77;;
26319;SDS011;14024;52.226;5.200;2024-01-11T12:51:42;46.75;;;20.17;;
26319;SDS011;14024;52.226;5.200;2024-01-11T12:54:14;48.25;;;21.35;;
26319;SDS011;14024;52.226;5.200;2024-01-11T12:56:45;46.30;;;20.30;;
26319;SDS011;14024;52.226;5.200;2024-01-11T12:59:11;45.15;;;21.45;;
26319;SDS011;14024;52.226;5.200;2024-01-11T13:01:37;47.05;;;21.08;;
26319;SDS011;14024;52.226;5.200;2024-01-11T13:04:03;50.05;;;20.67;;
26319;SDS011;14024;52.226;5.200;2024-01-11T13:06:32;53.35;;;21.77;;
26319;SDS011;14024;52.226;5.200;2024-01-11T13:08:59;45.45;;;21.15;;
26319;SDS011;14024;52.226;5.200;2024-01-11T13:11:24;49.30;;;21.75;;
26319;SDS011;14024;52.226;5.200;2024-01-11T13:13:50;50.22;;;20.73;;
26319;SDS011;14024;52.226;5.200;2024-01-11T13:16:16;52.22;;;23.17;;
26319;SDS011;14024;52.226;5.200;2024-01-11T13:18:44;48.15;;;20.52;;
26319;SDS011;14024;52.226;5.200;2024-01-11T13:21:09;46.90;;;21.58;;
26319;SDS011;14024;52.226;5.200;2024-01-11T13:23:35;49.65;;;21.67;;
26319;SDS011;14024;52.226;5.200;2024-01-11T13:26:02;47.50;;;21.95;;
26319;SDS011;14024;52.226;5.200;2024-01-11T13:28:29;50.13;;;21.60;;
26319;SDS011;14024;52.226;5.200;2024-01-11T13:30:55;52.70;;;22.70;;
26319;SDS011;14024;52.226;5.200;2024-01-11T13:33:20;51.90;;;22.20;;
26319;SDS011;14024;52.226;5.200;2024-01-11T13:35:47;49.85;;;20.73;;
26319;SDS011;14024;52.226;5.200;2024-01-11T13:38:13;52.28;;;23.02;;
26319;SDS011;14024;52.226;5.200;2024-01-11T13:40:38;47.90;;;20.98;;
26319;SDS011;14024;52.226;5.200;2024-01-11T13:43:05;46.58;;;20.15;;
26319;SDS011;14024;52.226;5.200;2024-01-11T13:45:30;50.72;;;21.52;;
26319;SDS011;14024;52.226;5.200;2024-01-11T13:47:56;42.97;;;18.85;;
26319;SDS011;14024;52.226;5.200;2024-01-11T13:50:24;53.88;;;22.30;;
26319;SDS011;14024;52.226;5.200;2024-01-11T13:52:49;54.88;;;23.38;;
26319;SDS011;14024;52.226;5.200;2024-01-11T13:55:15;52.50;;;22.92;;
26319;SDS011;14024;52.226;5.200;2024-01-11T13:57:42;46.22;;;20.52;;
26319;SDS011;14024;52.226;5.200;2024-01-11T14:00:08;43.42;;;21.17;;
26319;SDS011;14024;52.226;5.200;2024-01-11T14:02:36;47.22;;;20.55;;
26319;SDS011;14024;52.226;5.200;2024-01-11T14:05:02;46.35;;;20.83;;
26319;SDS011;14024;52.226;5.200;2024-01-11T14:07:28;47.13;;;21.00;;
26319;SDS011;14024;52.226;5.200;2024-01-11T14:09:53;52.72;;;22.55;;
26319;SDS011;14024;52.226;5.200;2024-01-11T14:12:19;45.58;;;20.52;;
26319;SDS011;14024;52.226;5.200;2024-01-11T14:14:44;52.17;;;22.42;;
26319;SDS011;14024;52.226;5.200;2024-01-11T14:17:09;54.05;;;23.38;;